Time;durP1;ratioP1;P1;durP2;ratioP2;P2;SDS_P1;SDS_P2;PMS_P1;PMS_P2;Temp;Humidity;BMP_temperature;BMP_pressure;BME280_temperature;BME280_humidity;BME280_pressure;Samples;Min_cycle;Max_cycle;Signal;HPM_P1;HPM_P2
2021/05/02 00:01:03;;;;;;;;;;;;;;;26.97;35.43;100184.50;5016693;28;804;-34
2021/05/02 00:03:29;;;;;;;;;;;;;;;26.95;35.43;100194.63;5016489;28;1003;-35
2021/05/02 00:05:54;;;;;;;;;;;;;;;27.06;35.21;100201.38;4998717;28;918;-35
2021/05/02 00:08:19;;;;;;;;;;;;;;;27.10;35.18;100197.28;4999398;28;781;-35
2021/05/02 00:10:44;;;;;;;;;;;;;;;27.04;35.08;100192.66;5016577;28;1354;-35
2021/05/02 00:13:10;;;;;;;;;;;;;;;27.04;35.27;100208.03;5016373;28;1961;-35
2021/05/02 00:15:35;;;;;;;;;;;;;;;27.00;35.21;100212.94;5016591;28;848;-35
2021/05/02 00:18:00;;;;;;;;;;;;;;;26.97;35.13;100213.34;5018728;28;968;-35
2021/05/02 00:20:26;;;;;;;;;;;;;;;26.96;35.53;100214.38;5020171;28;760;-35
2021/05/02 00:22:52;;;;;;;;;;;;;;;26.93;35.75;100210.19;5020111;28;784;-34
2021/05/02 00:25:21;;;;;;;;;;;;;;;27.00;35.42;100192.19;5020223;28;772;-35
2021/05/02 00:27:47;;;;;;;;;;;;;;;26.99;35.14;100193.19;5020116;28;904;-35
2021/05/02 00:30:12;;;;;;;;;;;;;;;27.04;35.28;100183.72;5019926;28;846;-35
2021/05/02 00:32:38;;;;;;;;;;;;;;;26.95;35.34;100188.41;5019844;28;960;-34
2021/05/02 00:35:03;;;;;;;;;;;;;;;26.99;35.06;100195.91;5019759;28;1967;-35
2021/05/02 00:37:29;;;;;;;;;;;;;;;27.02;35.30;100195.56;5020149;28;779;-35
2021/05/02 00:39:54;;;;;;;;;;;;;;;26.99;35.10;100187.00;5002392;28;780;-35
2021/05/02 00:42:21;;;;;;;;;;;;;;;26.98;35.38;100194.25;5020113;28;776;-35
2021/05/02 00:44:49;;;;;;;;;;;;;;;26.95;35.41;100191.09;5019968;28;752;-35
2021/05/02 00:47:16;;;;;;;;;;;;;;;26.96;35.15;100195.47;5019755;28;1019;-35
2021/05/02 00:50:00;;;;;;;;;;;;;;;26.94;35.46;100187.59;5019758;28;792;-35
2021/05/02 00:52:39;;;;;;;;;;;;;;;26.91;35.41;100187.94;5019917;28;768;-35
2021/05/02 00:55:08;;;;;;;;;;;;;;;26.96;35.41;100190.09;5019218;28;1898;-35
2021/05/02 00:57:53;;;;;;;;;;;;;;;26.98;35.26;100188.00;5020064;28;752;-35
2021/05/02 01:00:19;;;;;;;;;;;;;;;27.04;35.16;100178.34;5019260;28;1780;-35
2021/05/02 01:02:44;;;;;;;;;;;;;;;26.91;35.53;100182.56;5001586;28;1276;-35
2021/05/02 01:05:10;;;;;;;;;;;;;;;26.96;35.31;100179.28;5001610;28;1169;-35
2021/05/02 01:07:36;;;;;;;;;;;;;;;26.96;35.15;100172.00;5019515;28;764;-35
2021/05/02 01:10:03;;;;;;;;;;;;;;;26.86;35.53;100177.75;5017413;28;1194;-35
2021/05/02 01:12:28;;;;;;;;;;;;;;;26.86;35.77;100175.03;5019825;28;764;-35
2021/05/02 01:14:54;;;;;;;;;;;;;;;26.86;35.39;100168.84;5001466;28;1914;-35
2021/05/02 01:17:19;;;;;;;;;;;;;;;26.88;35.21;100175.69;5019139;28;1023;-35
2021/05/02 01:19:46;;;;;;;;;;;;;;;27.06;35.05;100166.28;5019252;28;835;-35
2021/05/02 01:22:13;;;;;;;;;;;;;;;27.04;35.18;100159.44;5019319;28;818;-35
2021/05/02 01:24:39;;;;;;;;;;;;;;;26.96;35.20;100152.31;5019293;28;803;-35
2021/05/02 01:27:05;;;;;;;;;;;;;;;26.95;35.43;100139.81;5019196;28;831;-35
2021/05/02 01:29:30;;;;;;;;;;;;;;;26.96;35.23;100142.31;5001522;28;733;-35
2021/05/02 01:31:55;;;;;;;;;;;;;;;26.99;35.37;100138.41;5018112;28;960;-35
2021/05/02 01:34:20;;;;;;;;;;;;;;;27.00;35.11;100140.06;5018877;28;1901;-35
2021/05/02 01:36:46;;;;;;;;;;;;;;;26.89;35.38;100139.56;5018513;28;861;-35
2021/05/02 01:39:11;;;;;;;;;;;;;;;27.01;35.49;100136.31;5018590;28;852;-35
2021/05/02 01:41:37;;;;;;;;;;;;;;;27.12;34.89;100143.94;5001488;28;788;-35
2021/05/02 01:44:02;;;;;;;;;;;;;;;27.09;34.98;100144.28;5018717;28;771;-35
2021/05/02 01:46:29;;;;;;;;;;;;;;;27.10;34.94;100145.13;5018433;28;1003;-35
2021/05/02 01:48:54;;;;;;;;;;;;;;;27.05;35.08;100134.94;5019080;28;772;-35
2021/05/02 01:51:19;;;;;;;;;;;;;;;27.05;35.16;100136.78;5018556;28;776;-35
2021/05/02 01:53:44;;;;;;;;;;;;;;;26.98;35.12;100129.47;5018411;28;1969;-35
2021/05/02 01:56:10;;;;;;;;;;;;;;;26.96;35.11;100128.81;5018467;28;826;-35
2021/05/02 01:58:35;;;;;;;;;;;;;;;27.07;35.02;100123.94;5018526;28;832;-35
2021/05/02 02:01:03;;;;;;;;;;;;;;;27.12;34.99;100118.78;5018395;28;747;-35
2021/05/02 02:03:28;;;;;;;;;;;;;;;27.02;34.97;100113.75;5017860;28;983;-35
2021/05/02 02:05:53;;;;;;;;;;;;;;;27.02;35.34;100111.03;5018117;28;805;-35
2021/05/02 02:08:19;;;;;;;;;;;;;;;27.06;34.96;100104.19;5018355;28;805;-34
2021/05/02 02:10:45;;;;;;;;;;;;;;;27.02;35.13;100101.09;5018273;28;1093;-35
2021/05/02 02:13:11;;;;;;;;;;;;;;;27.02;35.13;100106.50;5018055;28;1914;-35
2021/05/02 02:15:36;;;;;;;;;;;;;;;27.05;35.10;100102.56;5017979;28;781;-35
2021/05/02 02:18:01;;;;;;;;;;;;;;;27.00;35.36;100095.03;5017788;28;1016;-35
2021/05/02 02:20:27;;;;;;;;;;;;;;;27.19;34.94;100103.47;5017975;28;744;-35
2021/05/02 02:22:56;;;;;;;;;;;;;;;27.08;35.08;100095.91;5000717;28;863;-35
2021/05/02 02:25:24;;;;;;;;;;;;;;;27.11;34.88;100092.84;5017696;28;796;-35
2021/05/02 02:27:49;;;;;;;;;;;;;;;27.09;35.13;100103.00;5018113;28;806;-35
2021/05/02 02:30:14;;;;;;;;;;;;;;;27.08;35.07;100099.44;5000180;28;853;-35
2021/05/02 02:32:46;;;;;;;;;;;;;;;27.06;35.14;100100.69;4999513;28;1184;-35
2021/05/02 02:35:13;;;;;;;;;;;;;;;27.02;34.80;100106.50;5017824;28;1895;-35
2021/05/02 02:37:39;;;;;;;;;;;;;;;27.09;35.00;100097.59;5017593;28;824;-35
2021/05/02 02:40:05;;;;;;;;;;;;;;;27.07;34.86;100100.50;4999646;28;1145;-35
2021/05/02 02:42:30;;;;;;;;;;;;;;;27.12;34.64;100098.03;5017728;28;835;-35
2021/05/02 02:44:59;;;;;;;;;;;;;;;27.12;35.01;100095.34;5018199;28;834;-35
2021/05/02 02:47:25;;;;;;;;;;;;;;;27.14;34.89;100097.84;5017144;28;1008;-35
2021/05/02 02:49:54;;;;;;;;;;;;;;;27.08;34.83;100091.34;5017586;28;757;-35
2021/05/02 02:52:20;;;;;;;;;;;;;;;27.09;34.78;100084.09;5017539;28;883;-34
2021/05/02 02:54:46;;;;;;;;;;;;;;;26.50;36.21;100092.38;5017500;28;1906;-35
2021/05/02 02:57:12;;;;;;;;;;;;;;;26.19;36.95;100082.75;5017474;28;761;-33
2021/05/02 02:59:37;;;;;;;;;;;;;;;26.04;37.12;100076.38;4999682;28;781;-33
2021/05/02 03:02:02;;;;;;;;;;;;;;;26.06;37.17;100086.97;4999254;28;929;-35
2021/05/02 03:04:28;;;;;;;;;;;;;;;26.07;37.17;100069.78;4999400;28;1086;-34
2021/05/02 03:06:53;;;;;;;;;;;;;;;26.11;36.73;100070.25;5017389;28;803;-36
2021/05/02 03:09:18;;;;;;;;;;;;;;;25.97;37.25;100062.03;5016754;28;1073;-34
2021/05/02 03:11:44;;;;;;;;;;;;;;;26.00;36.60;100063.47;5017311;28;782;-36
2021/05/02 03:14:12;;;;;;;;;;;;;;;26.00;37.55;100069.72;4999706;28;1973;-35
2021/05/02 03:16:38;;;;;;;;;;;;;;;25.58;39.39;100063.22;5015185;28;987;-32
2021/05/02 03:19:13;;;;;;;;;;;;;;;25.31;40.06;100061.03;4999868;28;741;-37
2021/05/02 03:21:44;;;;;;;;;;;;;;;25.52;39.83;100057.56;5016856;28;815;-32
2021/05/02 03:24:09;;;;;;;;;;;;;;;25.47;40.07;100062.69;5016885;28;768;-32
2021/05/02 03:26:34;;;;;;;;;;;;;;;25.56;39.70;100055.31;4999691;28;1186;-36
2021/05/02 03:29:02;;;;;;;;;;;;;;;25.66;39.33;100052.34;5017013;28;745;-32
2021/05/02 03:31:28;;;;;;;;;;;;;;;25.72;39.15;100057.00;5016588;28;1027;-35
2021/05/02 03:33:55;;;;;;;;;;;;;;;25.70;39.18;100060.88;5016949;28;1965;-33
2021/05/02 03:36:23;;;;;;;;;;;;;;;25.74;38.94;100067.59;5016756;28;851;-36
2021/05/02 03:38:49;;;;;;;;;;;;;;;25.75;38.70;100063.84;4999168;28;863;-33
2021/05/02 03:41:15;;;;;;;;;;;;;;;25.77;38.69;100072.59;5016853;28;794;-33
2021/05/02 03:43:40;;;;;;;;;;;;;;;25.74;38.73;100076.47;5016939;28;851;-36
2021/05/02 03:46:05;;;;;;;;;;;;;;;25.78;38.59;100083.16;5017003;28;765;-33
2021/05/02 03:48:31;;;;;;;;;;;;;;;24.47;41.08;100082.56;5016422;28;960;-36
2021/05/02 03:50:56;;;;;;;;;;;;;;;24.03;42.47;100081.34;5016752;28;847;-33
2021/05/02 03:53:22;;;;;;;;;;;;;;;23.87;42.90;100076.94;5020166;28;1906;-36
2021/05/02 03:55:47;;;;;;;;;;;;;;;23.93;42.77;100070.84;5020705;28;844;-33
2021/05/02 03:58:16;;;;;;;;;;;;;;;23.87;43.41;100084.97;5019824;28;1048;-33
2021/05/02 04:00:42;;;;;;;;;;;;;;;24.38;42.16;100095.25;5020934;28;1076;-37
2021/05/02 04:03:07;;;;;;;;;;;;;;;24.42;41.78;100082.28;5020275;28;937;-37
2021/05/02 04:05:32;;;;;;;;;;;;;;;24.71;41.16;100086.03;5020418;28;740;-34
2021/05/02 04:07:57;;;;;;;;;;;;;;;25.47;39.48;100091.47;5020603;28;994;-33
2021/05/02 04:10:23;;;;;;;;;;;;;;;25.89;38.07;100095.28;5020173;28;1229;-33
2021/05/02 04:12:48;;;;;;;;;;;;;;;26.12;37.41;100093.47;5002795;28;768;-33
2021/05/02 04:15:14;;;;;;;;;;;;;;;26.27;37.17;100093.41;5020531;28;1973;-33
2021/05/02 04:17:39;;;;;;;;;;;;;;;26.37;36.83;100090.41;5020057;28;976;-33
2021/05/02 04:20:05;;;;;;;;;;;;;;;26.34;36.75;100083.50;5020015;28;821;-34
2021/05/02 04:22:30;;;;;;;;;;;;;;;26.07;36.69;100077.88;5020160;28;797;-34
2021/05/02 04:24:55;;;;;;;;;;;;;;;26.32;36.52;100092.81;5020200;28;819;-34
2021/05/02 04:27:21;;;;;;;;;;;;;;;26.37;36.70;100080.47;5020228;28;879;-34
2021/05/02 04:29:46;;;;;;;;;;;;;;;26.46;36.37;100083.84;5020321;28;792;-34
2021/05/02 04:32:11;;;;;;;;;;;;;;;26.54;36.37;100082.88;5019788;28;996;-34
2021/05/02 04:34:37;;;;;;;;;;;;;;;26.59;36.23;100088.50;5019891;28;1967;-34
2021/05/02 04:37:02;;;;;;;;;;;;;;;26.61;36.29;100089.13;5019711;28;847;-34
2021/05/02 04:39:27;;;;;;;;;;;;;;;26.66;35.98;100088.53;5019750;28;1448;-34
2021/05/02 04:41:53;;;;;;;;;;;;;;;26.60;36.13;100084.78;5019898;28;785;-34
2021/05/02 04:44:18;;;;;;;;;;;;;;;26.69;35.89;100090.03;5020135;28;832;-34
2021/05/02 04:46:43;;;;;;;;;;;;;;;26.73;35.69;100094.00;5019622;28;956;-33
2021/05/02 04:49:09;;;;;;;;;;;;;;;26.80;35.80;100104.84;5019552;28;906;-33
2021/05/02 04:51:34;;;;;;;;;;;;;;;26.92;35.09;100110.53;5020100;28;883;-33
2021/05/02 04:53:59;;;;;;;;;;;;;;;26.82;35.55;100109.03;5019725;28;1898;-34
2021/05/02 04:56:25;;;;;;;;;;;;;;;26.86;35.69;100107.59;5019454;28;800;-34
2021/05/02 04:58:50;;;;;;;;;;;;;;;26.63;37.05;100105.13;5019566;28;510;-31
2021/05/02 05:01:15;;;;;;;;;;;;;;;26.61;37.41;100109.91;5019402;28;956;-32
2021/05/02 05:03:43;;;;;;;;;;;;;;;26.64;38.50;100098.72;5019096;28;948;-31
2021/05/02 05:06:09;;;;;;;;;;;;;;;26.63;39.23;100097.88;5019907;28;761;-32
2021/05/02 05:08:34;;;;;;;;;;;;;;;26.65;39.98;100098.53;5019415;28;792;-32
2021/05/02 05:10:59;;;;;;;;;;;;;;;26.69;39.91;100095.44;5019340;28;1132;-32
2021/05/02 05:13:27;;;;;;;;;;;;;;;26.90;39.58;100094.53;5019178;28;1890;-32
2021/05/02 05:15:59;;;;;;;;;;;;;;;26.96;39.79;100103.72;5019088;28;830;-31
2021/05/02 05:18:24;;;;;;;;;;;;;;;26.96;39.14;100099.13;5019068;28;972;-32
2021/05/02 05:20:50;;;;;;;;;;;;;;;26.99;39.97;100109.53;5019312;28;800;-31
2021/05/02 05:23:15;;;;;;;;;;;;;;;27.04;39.66;100105.44;5019282;28;748;-31
2021/05/02 05:25:40;;;;;;;;;;;;;;;27.05;39.73;100107.09;5019103;28;791;-31
2021/05/02 05:28:06;;;;;;;;;;;;;;;27.16;38.54;100111.13;5018883;28;745;-31
2021/05/02 05:30:31;;;;;;;;;;;;;;;27.20;38.63;100110.53;5018733;28;823;-32
2021/05/02 05:33:00;;;;;;;;;;;;;;;27.22;38.73;100111.16;5018498;28;960;-31
2021/05/02 05:35:25;;;;;;;;;;;;;;;27.26;38.99;100107.03;5019013;28;784;-32
2021/05/02 05:37:50;;;;;;;;;;;;;;;27.30;39.13;100106.63;5018841;28;795;-31
2021/05/02 05:40:15;;;;;;;;;;;;;;;27.38;38.72;100106.44;5018850;28;1380;-32
2021/05/02 05:42:41;;;;;;;;;;;;;;;27.46;38.63;100110.88;5018925;28;799;-32
2021/05/02 05:45:06;;;;;;;;;;;;;;;27.50;38.00;100110.25;5018631;28;749;-32
2021/05/02 05:47:32;;;;;;;;;;;;;;;27.59;37.97;100110.09;5018509;28;1007;-31
2021/05/02 05:49:57;;;;;;;;;;;;;;;27.60;37.07;100106.34;5018756;28;768;-32
2021/05/02 05:52:22;;;;;;;;;;;;;;;27.64;36.90;100096.81;5018786;28;787;-31
2021/05/02 05:54:48;;;;;;;;;;;;;;;27.65;37.17;100103.03;5018169;28;1926;-32
2021/05/02 05:57:13;;;;;;;;;;;;;;;27.69;37.54;100094.38;5018502;28;814;-31
2021/05/02 05:59:38;;;;;;;;;;;;;;;27.78;37.09;100094.19;5018320;28;841;-31
2021/05/02 06:02:04;;;;;;;;;;;;;;;27.73;36.50;100086.66;5018101;28;1011;-32
2021/05/02 06:04:29;;;;;;;;;;;;;;;27.83;36.48;100100.63;5018110;28;807;-31
2021/05/02 06:06:54;;;;;;;;;;;;;;;27.92;36.34;100087.75;5018193;28;791;-32
2021/05/02 06:09:20;;;;;;;;;;;;;;;27.96;35.97;100091.72;5018289;28;1190;-32
2021/05/02 06:11:47;;;;;;;;;;;;;;;28.08;35.57;100083.84;5018002;28;820;-32
2021/05/02 06:14:12;;;;;;;;;;;;;;;28.09;35.58;100080.06;5017411;28;1983;-32
2021/05/02 06:16:38;;;;;;;;;;;;;;;28.16;35.45;100076.56;5017446;28;1023;-32
2021/05/02 06:19:03;;;;;;;;;;;;;;;28.16;35.05;100076.56;5017898;28;830;-32
2021/05/02 06:21:28;;;;;;;;;;;;;;;28.20;34.97;100083.22;5017984;28;835;-31
2021/05/02 06:23:54;;;;;;;;;;;;;;;28.30;35.13;100077.41;5018184;28;883;-31
2021/05/02 06:26:19;;;;;;;;;;;;;;;28.32;35.00;100070.75;5017995;28;764;-31
2021/05/02 06:28:49;;;;;;;;;;;;;;;28.30;34.63;100072.81;5017579;28;1397;-31
2021/05/02 06:31:14;;;;;;;;;;;;;;;28.46;34.68;100068.91;5017769;28;1020;-31
2021/05/02 06:33:39;;;;;;;;;;;;;;;28.50;34.20;100071.19;5017941;28;1965;-31
2021/05/02 06:36:05;;;;;;;;;;;;;;;28.54;34.23;100069.75;5017634;28;852;-31
2021/05/02 06:38:30;;;;;;;;;;;;;;;28.59;34.06;100072.66;5017534;28;808;-31
2021/05/02 06:40:55;;;;;;;;;;;;;;;28.61;33.79;100062.47;5017862;28;799;-31
2021/05/02 06:43:21;;;;;;;;;;;;;;;28.58;34.03;100052.03;5017531;28;818;-31
2021/05/02 06:45:46;;;;;;;;;;;;;;;28.66;34.01;100049.09;5017373;28;1432;-31
2021/05/02 06:48:11;;;;;;;;;;;;;;;28.69;33.95;100045.16;5017424;28;956;-31
2021/05/02 06:50:37;;;;;;;;;;;;;;;28.76;33.77;100045.97;5017540;28;1086;-32
2021/05/02 06:53:02;;;;;;;;;;;;;;;28.80;33.92;100043.66;5017358;28;802;-31
2021/05/02 06:55:27;;;;;;;;;;;;;;;28.89;33.57;100041.56;5017517;28;1971;-31
2021/05/02 06:57:55;;;;;;;;;;;;;;;29.03;33.11;100031.56;5017167;28;841;-31
2021/05/02 07:00:20;;;;;;;;;;;;;;;29.06;33.33;100031.94;5017702;28;741;-31
2021/05/02 07:02:45;;;;;;;;;;;;;;;28.92;33.51;100031.16;5017055;28;1004;-32
2021/05/02 07:05:11;;;;;;;;;;;;;;;28.98;33.79;100028.66;5017235;28;812;-33
2021/05/02 07:07:36;;;;;;;;;;;;;;;29.24;33.50;100026.91;5017698;28;814;-33
2021/05/02 07:10:01;;;;;;;;;;;;;;;29.15;32.90;100027.13;5017396;28;1290;-35
2021/05/02 07:12:27;;;;;;;;;;;;;;;28.96;32.46;100021.53;5016922;28;912;-33
2021/05/02 07:14:52;;;;;;;;;;;;;;;28.99;32.15;100022.19;5017127;28;1976;-35
2021/05/02 07:17:17;;;;;;;;;;;;;;;29.16;32.77;100012.53;5016814;28;976;-33
2021/05/02 07:19:43;;;;;;;;;;;;;;;29.31;32.57;100014.97;5017075;28;776;-33
2021/05/02 07:22:08;;;;;;;;;;;;;;;29.34;32.89;100013.72;5017185;28;826;-30
2021/05/02 07:24:34;;;;;;;;;;;;;;;29.39;32.64;100004.94;5017031;28;810;-32
2021/05/02 07:26:59;;;;;;;;;;;;;;;29.43;32.69;100001.56;5016861;28;749;-33
2021/05/02 07:29:24;;;;;;;;;;;;;;;29.55;32.92;100001.72;5017459;28;728;-33
2021/05/02 07:31:50;;;;;;;;;;;;;;;29.63;32.85;99995.22;5016611;28;1031;-33
2021/05/02 07:34:15;;;;;;;;;;;;;;;29.73;32.47;99996.66;5016592;28;1914;-35
2021/05/02 07:36:40;;;;;;;;;;;;;;;29.79;32.56;99993.91;5016979;28;827;-31
2021/05/02 07:39:06;;;;;;;;;;;;;;;29.88;32.35;99999.03;5016800;28;818;-31
2021/05/02 07:41:31;;;;;;;;;;;;;;;29.88;32.60;99990.91;5017040;28;804;-33
2021/05/02 07:43:57;;;;;;;;;;;;;;;29.90;32.36;99976.06;5016768;28;851;-33
2021/05/02 07:46:22;;;;;;;;;;;;;;;29.93;32.51;99975.63;5016600;28;956;-32
2021/05/02 07:48:47;;;;;;;;;;;;;;;30.04;32.31;99967.84;5016968;28;812;-32
2021/05/02 07:51:13;;;;;;;;;;;;;;;30.03;32.47;99971.59;5016967;28;752;-32
2021/05/02 07:53:38;;;;;;;;;;;;;;;30.14;32.16;99960.03;5016646;28;1894;-31
2021/05/02 07:56:03;;;;;;;;;;;;;;;30.18;31.97;99961.22;5016688;28;736;-31
2021/05/02 07:58:30;;;;;;;;;;;;;;;30.17;32.25;99958.75;5016390;28;841;-30
2021/05/02 08:00:55;;;;;;;;;;;;;;;30.21;32.01;99957.28;5016608;28;835;-32
2021/05/02 08:03:20;;;;;;;;;;;;;;;30.22;31.97;99952.66;5016039;28;952;-31
2021/05/02 08:05:46;;;;;;;;;;;;;;;30.29;32.08;99948.00;5016326;28;851;-31
2021/05/02 08:08:12;;;;;;;;;;;;;;;30.38;32.20;99932.28;5016539;28;801;-31
2021/05/02 08:10:37;;;;;;;;;;;;;;;30.40;32.15;99922.00;5016714;28;1121;-31
2021/05/02 08:13:02;;;;;;;;;;;;;;;30.34;32.32;99917.50;5016661;28;907;-31
2021/05/02 08:15:28;;;;;;;;;;;;;;;30.38;32.09;99918.72;5016075;28;1981;-32
2021/05/02 08:17:53;;;;;;;;;;;;;;;30.47;31.59;99913.78;5015722;28;987;-32
2021/05/02 08:20:18;;;;;;;;;;;;;;;30.54;31.75;99907.25;5016599;28;819;-32
2021/05/02 08:22:44;;;;;;;;;;;;;;;30.50;31.65;99905.19;5016533;28;780;-32
2021/05/02 08:25:09;;;;;;;;;;;;;;;30.60;31.56;99891.94;5016378;28;803;-32
2021/05/02 08:27:34;;;;;;;;;;;;;;;30.67;31.41;99891.84;5016553;28;824;-32
2021/05/02 08:30:00;;;;;;;;;;;;;;;30.63;31.47;99886.03;5016469;28;780;-32
2021/05/02 08:32:25;;;;;;;;;;;;;;;30.66;31.36;99906.50;5016009;28;952;-32
2021/05/02 08:34:51;;;;;;;;;;;;;;;30.58;31.64;99896.75;5016454;28;1902;-30
2021/05/02 08:37:16;;;;;;;;;;;;;;;30.68;31.40;99901.63;5016408;28;811;-32
2021/05/02 08:39:41;;;;;;;;;;;;;;;30.62;31.51;99891.69;5020163;28;820;-32
2021/05/02 08:42:07;;;;;;;;;;;;;;;30.79;31.36;99892.75;5019814;28;767;-32
2021/05/02 08:44:34;;;;;;;;;;;;;;;30.71;31.35;99894.94;5019782;28;740;-32
2021/05/02 08:46:59;;;;;;;;;;;;;;;30.62;32.01;99900.69;5019259;28;1206;-32
2021/05/02 08:49:24;;;;;;;;;;;;;;;30.75;31.63;99891.53;5019995;28;744;-32
2021/05/02 08:51:49;;;;;;;;;;;;;;;30.88;31.59;99887.03;5019753;28;764;-32
2021/05/02 08:54:15;;;;;;;;;;;;;;;30.86;31.69;99892.69;5019389;28;1938;-32
2021/05/02 08:56:40;;;;;;;;;;;;;;;30.89;31.68;99904.97;5019451;28;867;-32
2021/05/02 08:59:08;;;;;;;;;;;;;;;30.86;31.87;99898.13;5019452;28;773;-32
2021/05/02 09:01:34;;;;;;;;;;;;;;;30.86;31.68;99892.69;5019252;28;1027;-32
2021/05/02 09:04:05;;;;;;;;;;;;;;;30.84;31.70;99896.69;5019351;28;791;-32
2021/05/02 09:06:31;;;;;;;;;;;;;;;30.80;32.01;99896.31;5019345;28;772;-32
2021/05/02 09:09:06;;;;;;;;;;;;;;;30.85;31.88;99898.31;5019405;28;1208;-32
2021/05/02 09:11:44;;;;;;;;;;;;;;;30.83;31.94;99890.41;5019533;28;866;-32
2021/05/02 09:14:23;;;;;;;;;;;;;;;30.84;31.99;99897.50;5019085;28;1979;-31
2021/05/02 09:16:50;;;;;;;;;;;;;;;30.85;31.99;99887.47;5018705;28;1011;-32
2021/05/02 09:19:15;;;;;;;;;;;;;;;30.87;31.85;99890.78;5018859;28;804;-31
2021/05/02 09:21:40;;;;;;;;;;;;;;;30.94;31.66;99894.25;5019216;28;773;-32
2021/05/02 09:24:07;;;;;;;;;;;;;;;30.92;31.62;99893.66;5019246;28;764;-32
2021/05/02 09:26:34;;;;;;;;;;;;;;;30.97;31.57;99901.09;5018774;28;852;-32
2021/05/02 09:29:05;;;;;;;;;;;;;;;31.06;31.45;99902.44;5018791;28;1000;-32
2021/05/02 09:31:31;;;;;;;;;;;;;;;31.01;31.23;99894.16;5018631;28;953;-32
2021/05/02 09:34:18;;;;;;;;;;;;;;;31.02;31.31;99890.38;5018964;28;1902;-32
2021/05/02 09:36:50;;;;;;;;;;;;;;;31.09;31.18;99890.28;5018806;28;981;-32
2021/05/02 09:39:34;;;;;;;;;;;;;;;31.08;31.33;99875.84;5018967;28;578;-31
2021/05/02 09:42:04;;;;;;;;;;;;;;;31.16;31.13;99872.81;5018688;28;765;-31
2021/05/02 09:44:38;;;;;;;;;;;;;;;31.26;30.99;99868.72;5018454;28;860;-32
2021/05/02 09:47:22;;;;;;;;;;;;;;;31.28;31.07;99870.13;5018043;28;1015;-32
2021/05/02 09:50:06;;;;;;;;;;;;;;;31.35;31.04;99866.47;5017568;28;760;-32
2021/05/02 09:52:50;;;;;;;;;;;;;;;31.34;30.98;99852.06;5018727;28;823;-32
2021/05/02 09:55:24;;;;;;;;;;;;;;;31.30;30.82;99853.59;5018296;28;1902;-31
2021/05/02 09:57:52;;;;;;;;;;;;;;;31.39;30.91;99854.13;5018595;28;756;-30
2021/05/02 10:00:27;;;;;;;;;;;;;;;31.40;30.84;99862.03;5018463;28;966;-33
2021/05/02 10:02:53;;;;;;;;;;;;;;;31.32;31.21;99856.91;5018194;28;1011;-32
2021/05/02 10:05:19;;;;;;;;;;;;;;;31.35;30.59;99844.72;5000909;28;909;-32
2021/05/02 10:07:44;;;;;;;;;;;;;;;31.38;31.03;99850.53;5018322;28;768;-31
2021/05/02 10:10:09;;;;;;;;;;;;;;;31.37;30.74;99851.59;5018150;28;1282;-31
2021/05/02 10:12:40;;;;;;;;;;;;;;;31.36;30.80;99849.97;5018614;28;768;-32
2021/05/02 10:15:05;;;;;;;;;;;;;;;31.30;30.66;99847.34;5017908;28;1975;-32
2021/05/02 10:17:31;;;;;;;;;;;;;;;31.30;30.41;99844.63;5017803;28;1015;-32
2021/05/02 10:19:56;;;;;;;;;;;;;;;31.33;30.53;99849.59;5018096;28;744;-32
2021/05/02 10:22:21;;;;;;;;;;;;;;;31.35;30.46;99856.44;5017961;28;880;-32
2021/05/02 10:24:46;;;;;;;;;;;;;;;31.31;31.04;99863.41;5018156;28;907;-32
2021/05/02 10:27:12;;;;;;;;;;;;;;;31.25;31.27;99848.03;5000621;28;753;-32
2021/05/02 10:29:39;;;;;;;;;;;;;;;31.40;31.36;99848.44;5017867;28;851;-32
2021/05/02 10:32:10;;;;;;;;;;;;;;;30.95;29.73;99852.44;5017623;28;1428;-32
2021/05/02 10:34:36;;;;;;;;;;;;;;;30.47;30.13;99859.53;5017833;28;1961;-32
2021/05/02 10:37:20;;;;;;;;;;;;;;;30.17;31.63;99861.09;5018145;28;775;-32
2021/05/02 10:39:54;;;;;;;;;;;;;;;30.25;31.15;99852.69;5017836;28;772;-32
2021/05/02 10:42:52;;;;;;;;;;;;;;;30.04;31.86;99846.63;5017742;28;748;-31
2021/05/02 10:45:33;;;;;;;;;;;;;;;30.04;31.78;99854.78;4992410;28;1271;-34
2021/05/02 10:47:59;;;;;;;;;;;;;;;30.05;31.81;99848.28;5017240;28;968;-30
2021/05/02 10:50:25;;;;;;;;;;;;;;;30.02;31.88;99847.91;5017468;28;792;-28
2021/05/02 10:53:02;;;;;;;;;;;;;;;29.98;32.22;99847.50;5017421;28;1538;-34
2021/05/02 10:55:47;;;;;;;;;;;;;;;29.86;32.37;99841.19;5017488;28;1894;-32
2021/05/02 10:58:22;;;;;;;;;;;;;;;29.81;32.78;99836.44;5017826;28;742;-33
2021/05/02 11:00:56;;;;;;;;;;;;;;;29.75;32.65;99846.28;5017056;28;768;-33
2021/05/02 11:03:41;;;;;;;;;;;;;;;29.74;32.81;99836.50;5017722;28;956;-34
2021/05/02 11:06:13;;;;;;;;;;;;;;;29.64;32.88;99831.59;5006710;28;1844;-33
2021/05/02 11:08:52;;;;;;;;;;;;;;;29.57;33.21;99828.06;5017423;28;761;-33
2021/05/02 11:11:32;;;;;;;;;;;;;;;29.56;33.27;99823.72;5017443;28;809;-33
2021/05/02 11:14:10;;;;;;;;;;;;;;;29.35;34.58;99825.75;5016873;28;1975;-34
2021/05/02 11:16:38;;;;;;;;;;;;;;;29.48;34.09;99832.13;5016827;28;1040;-33
2021/05/02 11:19:04;;;;;;;;;;;;;;;29.56;33.97;99832.66;5016844;28;832;-33
2021/05/02 11:22:06;;;;;;;;;;;;;;;29.57;33.79;99823.50;5017119;28;764;-34
2021/05/02 11:24:45;;;;;;;;;;;;;;;29.53;33.80;99827.69;4996911;28;1157;-34
2021/05/02 11:27:21;;;;;;;;;;;;;;;29.43;34.04;99827.34;5016987;28;815;-32
2021/05/02 11:32:26;;;;;;;;;;;;;;;29.32;34.69;99826.19;5016139;28;949;-33
2021/05/02 11:34:52;;;;;;;;;;;;;;;29.20;34.94;99815.25;5016988;28;1902;-33
2021/05/02 11:37:36;;;;;;;;;;;;;;;29.25;34.76;99823.53;5017084;28;784;-34
2021/05/02 11:40:02;;;;;;;;;;;;;;;29.28;34.90;99827.69;5016700;28;749;-31
2021/05/02 11:42:28;;;;;;;;;;;;;;;29.33;34.58;99819.72;4999118;28;1121;-34
2021/05/02 11:44:53;;;;;;;;;;;;;;;29.56;34.20;99818.28;4999350;28;767;-33
2021/05/02 11:47:19;;;;;;;;;;;;;;;29.61;34.05;99814.94;5016289;28;964;-33
2021/05/02 11:49:44;;;;;;;;;;;;;;;29.38;34.63;99814.47;4999836;28;953;-33
2021/05/02 11:52:10;;;;;;;;;;;;;;;29.24;34.62;99815.63;5016780;28;895;-33
2021/05/02 11:54:38;;;;;;;;;;;;;;;29.24;34.39;99816.47;5016581;28;1961;-33
2021/05/02 11:57:04;;;;;;;;;;;;;;;29.24;33.91;99804.81;4999170;28;1291;-33
2021/05/02 11:59:29;;;;;;;;;;;;;;;29.12;34.20;99810.09;4998745;28;1465;-33
2021/05/02 12:01:54;;;;;;;;;;;;;;;29.04;33.89;99806.63;5016140;28;975;-34
2021/05/02 12:04:22;;;;;;;;;;;;;;;29.00;33.84;99807.25;5016741;28;769;-33
2021/05/02 12:06:47;;;;;;;;;;;;;;;28.98;33.77;99804.78;5016452;28;752;-32
2021/05/02 12:09:13;;;;;;;;;;;;;;;29.10;33.38;99799.47;5016586;28;1089;-33
2021/05/02 12:11:39;;;;;;;;;;;;;;;29.27;32.86;99812.47;5016793;28;810;-33
2021/05/02 12:14:04;;;;;;;;;;;;;;;29.48;32.11;99818.56;5018612;28;1961;-34
2021/05/02 12:16:30;;;;;;;;;;;;;;;29.47;32.18;99806.91;5020105;28;945;-33
2021/05/02 12:19:05;;;;;;;;;;;;;;;29.31;31.89;99795.56;5020467;28;753;-33
2021/05/02 12:21:36;;;;;;;;;;;;;;;29.48;31.39;99797.72;5019918;28;822;-33
2021/05/02 12:24:14;;;;;;;;;;;;;;;29.51;31.06;99799.16;5020121;28;827;-34
2021/05/02 12:26:42;;;;;;;;;;;;;;;29.54;31.14;99788.72;5020185;28;764;-33
2021/05/02 12:29:08;;;;;;;;;;;;;;;29.48;30.97;99794.19;5020125;28;862;-31
2021/05/02 12:31:35;;;;;;;;;;;;;;;29.42;30.98;99788.63;5019804;28;953;-32
2021/05/02 12:34:00;;;;;;;;;;;;;;;29.39;31.19;99794.47;5019897;28;1965;-33
2021/05/02 12:36:29;;;;;;;;;;;;;;;29.34;30.91;99786.19;5002693;28;867;-34
2021/05/02 12:39:20;;;;;;;;;;;;;;;29.39;30.69;99782.81;5020211;28;704;-32
2021/05/02 12:41:50;;;;;;;;;;;;;;;29.37;30.70;99783.03;5016455;28;1495;-34
2021/05/02 12:44:20;;;;;;;;;;;;;;;29.42;30.45;99785.91;5019993;28;737;-32
2021/05/02 12:46:46;;;;;;;;;;;;;;;29.56;30.15;99788.50;5019459;28;948;-32
2021/05/02 12:49:12;;;;;;;;;;;;;;;29.50;30.01;99790.19;5020245;28;749;-33
2021/05/02 12:51:37;;;;;;;;;;;;;;;29.52;29.78;99781.84;5020215;28;778;-32
2021/05/02 12:54:07;;;;;;;;;;;;;;;29.52;29.90;99787.25;5019583;28;1969;-33
2021/05/02 12:56:32;;;;;;;;;;;;;;;29.50;29.74;99792.91;5019743;28;811;-33
2021/05/02 12:58:59;;;;;;;;;;;;;;;29.72;29.06;99778.97;5019716;28;792;-34
2021/05/02 13:01:24;;;;;;;;;;;;;;;29.76;29.01;99776.66;5001839;28;948;-32